Tegucigalpa, Honduras
Current Conditions -  °F | °C
As of 3:00 AM on Thursday 18 Dec 2014 (Local Time) from MHTG Reporting Station
Broken Clouds Broken Clouds  
Wind Chill: 57°   Ceiling: 2400
Heat Index: 57°   Visibility: 6mi
Dew Point: 57°   Wind: 0mph
Humidity: 100%   Direction: NA
Pressure: 30.12"   Gusts: NA
Location:  14.09°N, 87.22°W
Report Text: MHTG 180900Z 00000KT 9999 BKN024 14/14 Q1020 A3012 NOSIG
Loading
Personal Weather Stations






























Interactive Weather Map New forecast layout! Learn more

10-Day Weather Forecast

Advertisements
Track Severe Weather on mobile